createdAt,value
2022-08-24T00:02:01.701Z,98186.78
2022-08-24T00:04:32.033Z,98189.97
2022-08-24T00:07:02.233Z,98192.94
2022-08-24T00:09:32.588Z,98195.41
2022-08-24T00:12:00.137Z,98202.88
2022-08-24T00:14:27.451Z,98213.00
2022-08-24T00:16:55.111Z,98208.53
2022-08-24T00:19:22.404Z,98204.38
2022-08-24T00:21:49.881Z,98212.16
2022-08-24T00:24:17.410Z,98199.72
2022-08-24T00:26:46.430Z,98201.22
2022-08-24T00:29:15.870Z,98196.38
2022-08-24T00:31:43.725Z,98194.22
2022-08-24T00:34:13.203Z,98208.03
2022-08-24T00:36:42.496Z,98197.88
2022-08-24T00:39:11.721Z,98203.72
2022-08-24T00:41:46.436Z,98202.72
2022-08-24T00:44:16.665Z,98207.69
2022-08-24T00:46:58.414Z,98197.88
2022-08-24T00:49:44.726Z,98200.34
2022-08-24T00:52:19.823Z,98209.00
2022-08-24T00:54:58.686Z,98203.00
2022-08-24T00:57:34.042Z,98199.38
2022-08-24T01:00:16.163Z,98203.53
2022-08-24T01:02:49.243Z,98213.78
2022-08-24T01:05:19.406Z,98213.31
2022-08-24T01:07:50.937Z,98217.44
2022-08-24T01:10:27.434Z,98223.75
2022-08-24T01:13:05.925Z,98232.91
2022-08-24T01:15:43.021Z,98239.16
2022-08-24T01:18:36.975Z,98229.03
2022-08-24T01:21:36.393Z,98234.19
2022-08-24T01:24:11.242Z,98229.88
2022-08-24T01:26:50.358Z,98231.72
2022-08-24T01:29:25.713Z,98223.56
2022-08-24T01:31:54.920Z,98224.41
2022-08-24T01:34:22.374Z,98225.22
2022-08-24T01:36:56.202Z,98227.44
2022-08-24T01:39:36.239Z,98221.97
2022-08-24T01:42:04.355Z,98227.63
2022-08-24T01:44:36.267Z,98226.44
2022-08-24T01:47:07.811Z,98222.31
2022-08-24T01:49:41.692Z,98223.44
2022-08-24T01:52:14.030Z,98215.50
2022-08-24T01:54:43.473Z,98221.63
2022-08-24T01:57:16.323Z,98216.47
2022-08-24T01:59:44.721Z,98223.59
2022-08-24T02:02:25.099Z,98206.84
2022-08-24T02:04:52.592Z,98220.66
2022-08-24T02:07:19.961Z,98217.34
2022-08-24T02:09:47.545Z,98220.97
2022-08-24T02:12:15.695Z,98212.34
2022-08-24T02:14:43.611Z,98216.66
2022-08-24T02:17:11.376Z,98215.69
2022-08-24T02:19:38.951Z,98214.69
2022-08-24T02:22:06.531Z,98224.31
2022-08-24T02:24:34.460Z,98223.66
2022-08-24T02:27:02.541Z,98228.97
2022-08-24T02:29:29.815Z,98225.31
2022-08-24T02:31:57.932Z,98225.97
2022-08-24T02:34:25.852Z,98225.31
2022-08-24T02:36:53.803Z,98234.75
2022-08-24T02:39:21.704Z,98230.28
2022-08-24T02:41:49.945Z,98235.59
2022-08-24T02:44:17.206Z,98238.56
2022-08-24T02:46:44.817Z,98241.06
2022-08-24T02:49:12.500Z,98240.72
2022-08-24T02:51:46.005Z,98242.72
2022-08-24T02:54:18.371Z,98239.53
2022-08-24T02:56:47.354Z,98243.88
2022-08-24T02:59:16.363Z,98243.53
2022-08-24T03:01:44.959Z,98237.56
2022-08-24T03:04:13.164Z,98243.88
2022-08-24T03:06:40.995Z,98241.88
2022-08-24T03:09:09.032Z,98245.19
2022-08-24T03:11:37.258Z,98245.53
2022-08-24T03:14:05.161Z,98245.84
2022-08-24T03:16:32.559Z,98244.53
2022-08-24T03:19:00.090Z,98250.03
2022-08-24T03:21:28.175Z,98251.84
2022-08-24T03:23:55.513Z,98255.50
2022-08-24T03:26:23.213Z,98251.16
2022-08-24T03:28:51.209Z,98250.19
2022-08-24T03:31:19.779Z,98249.84
2022-08-24T03:33:47.150Z,98252.34
2022-08-24T03:36:14.782Z,98262.13
2022-08-24T03:38:43.122Z,98270.75
2022-08-24T03:41:10.843Z,98265.63
2022-08-24T03:43:46.855Z,98268.94
2022-08-24T03:46:26.183Z,98274.09
2022-08-24T03:48:56.426Z,98275.06
2022-08-24T03:51:28.670Z,98264.78
2022-08-24T03:53:59.033Z,98259.47
2022-08-24T03:56:26.696Z,98268.44
2022-08-24T03:58:54.117Z,98275.41
2022-08-24T04:01:22.154Z,98262.13
2022-08-24T04:03:50.595Z,98262.63
2022-08-24T04:06:19.948Z,98258.00
2022-08-24T04:08:47.858Z,98255.00
2022-08-24T04:11:21.489Z,98253.34
2022-08-24T04:13:49.641Z,98256.16
2022-08-24T04:16:20.530Z,98254.16
2022-08-24T04:18:48.802Z,98262.31
2022-08-24T04:21:23.164Z,98251.69
2022-08-24T04:23:52.400Z,98248.84
2022-08-24T04:26:34.131Z,98252.16
2022-08-24T04:29:12.620Z,98246.50
2022-08-24T04:31:42.877Z,98253.66
2022-08-24T04:34:12.654Z,98244.88
2022-08-24T04:36:45.118Z,98244.88
2022-08-24T04:39:13.353Z,98255.16
2022-08-24T04:41:42.760Z,98252.16
2022-08-24T04:44:10.020Z,98253.66
2022-08-24T04:46:37.687Z,98264.63
2022-08-24T04:49:05.003Z,98271.13
2022-08-24T04:51:36.378Z,98263.78
2022-08-24T04:54:06.302Z,98266.75
2022-08-24T04:56:34.133Z,98255.81
2022-08-24T04:59:02.089Z,98263.59
2022-08-24T05:01:32.979Z,98260.75
2022-08-24T05:04:00.472Z,98260.59
2022-08-24T05:06:31.460Z,98269.03
2022-08-24T05:09:00.560Z,98264.41
2022-08-24T05:11:28.639Z,98262.88
2022-08-24T05:13:57.297Z,98259.06
2022-08-24T05:16:26.677Z,98256.06
2022-08-24T05:18:56.580Z,98251.38
2022-08-24T05:21:25.237Z,98254.38
2022-08-24T05:23:52.717Z,98252.50
2022-08-24T05:26:25.998Z,98267.28
2022-08-24T05:29:02.561Z,98265.91
2022-08-24T05:31:33.496Z,98262.25
2022-08-24T05:34:02.600Z,98269.06
2022-08-24T05:36:35.730Z,98263.41
2022-08-24T05:39:11.506Z,98266.72
2022-08-24T05:41:44.747Z,98266.72
2022-08-24T05:44:16.167Z,98264.03
2022-08-24T05:46:44.547Z,98268.03
2022-08-24T05:49:12.697Z,98269.88
2022-08-24T05:51:42.700Z,98275.38
2022-08-24T05:54:11.457Z,98275.50
2022-08-24T05:56:38.703Z,98278.50
2022-08-24T05:59:06.251Z,98271.00
2022-08-24T06:01:33.687Z,98265.16
2022-08-24T06:04:01.370Z,98267.00
2022-08-24T06:06:29.181Z,98263.84
2022-08-24T06:09:00.078Z,98264.53
2022-08-24T06:11:37.875Z,98270.88
2022-08-24T06:14:12.651Z,98274.66
2022-08-24T06:16:44.306Z,98277.28
2022-08-24T06:19:15.328Z,98271.78
2022-08-24T06:21:44.010Z,98280.91
2022-08-24T06:24:11.247Z,98284.38
2022-08-24T06:26:57.566Z,98282.19
2022-08-24T06:29:24.892Z,98281.69
2022-08-24T06:31:54.265Z,98286.50
2022-08-24T06:34:26.261Z,98290.31
2022-08-24T06:36:53.989Z,98296.09
2022-08-24T06:39:21.380Z,98308.91
2022-08-24T06:41:48.605Z,98312.19
2022-08-24T06:44:16.027Z,98315.03
2022-08-24T06:46:43.239Z,98313.53
2022-08-24T06:49:10.560Z,98304.31
2022-08-24T06:51:38.112Z,98300.63
2022-08-24T06:54:06.062Z,98300.78
2022-08-24T06:56:34.166Z,98302.44
2022-08-24T06:59:04.052Z,98306.06
2022-08-24T07:01:32.223Z,98306.06
2022-08-24T07:03:59.472Z,98304.03
2022-08-24T07:06:27.206Z,98302.66
2022-08-24T07:08:56.593Z,98293.78
2022-08-24T07:11:25.171Z,98301.06
2022-08-24T07:13:52.725Z,98298.81
2022-08-24T07:16:21.516Z,98306.19
2022-08-24T07:18:50.117Z,98296.28
2022-08-24T07:21:21.590Z,98304.38
2022-08-24T07:23:54.004Z,98306.28
2022-08-24T07:26:24.131Z,98313.72
2022-08-24T07:29:05.105Z,98318.78
2022-08-24T07:31:35.979Z,98322.84
2022-08-24T07:34:06.434Z,98317.13
2022-08-24T07:36:37.410Z,98317.97
2022-08-24T07:39:09.943Z,98320.34
2022-08-24T07:42:02.559Z,98314.16
2022-08-24T07:44:31.853Z,98303.91
2022-08-24T07:47:10.357Z,98313.94
2022-08-24T07:49:48.210Z,98315.09
2022-08-24T07:52:15.869Z,98324.59
2022-08-24T07:54:43.206Z,98329.03
2022-08-24T07:57:10.518Z,98325.13
2022-08-24T07:59:38.055Z,98330.66
2022-08-24T08:02:05.995Z,98340.06
2022-08-24T08:04:33.463Z,98343.97
2022-08-24T08:07:01.820Z,98342.44
2022-08-24T08:09:29.468Z,98348.66
2022-08-24T08:11:56.726Z,98348.75
2022-08-24T08:14:24.204Z,98354.31
2022-08-24T08:16:51.822Z,98353.47
2022-08-24T08:19:19.160Z,98352.75
2022-08-24T08:22:11.784Z,98351.25
2022-08-24T08:24:45.031Z,98354.59
2022-08-24T08:27:16.436Z,98353.56
2022-08-24T08:29:44.836Z,98362.59
2022-08-24T08:32:17.072Z,98354.59
2022-08-24T08:34:45.812Z,98347.22
2022-08-24T08:37:15.343Z,98353.56
2022-08-24T08:39:43.964Z,98351.81
2022-08-24T08:42:47.758Z,98353.69
2022-08-24T08:45:46.773Z,98351.63
2022-08-24T08:48:32.448Z,98360.84
2022-08-24T08:51:15.860Z,98360.50
2022-08-24T08:54:29.397Z,98368.94
2022-08-24T08:57:12.230Z,98370.78
2022-08-24T08:59:59.879Z,98372.88
2022-08-24T09:02:30.027Z,98373.59
2022-08-24T09:09:02.818Z,98379.81
2022-08-24T09:12:09.013Z,98386.03
2022-08-24T09:15:11.440Z,98384.47
2022-08-24T09:17:50.959Z,98382.81
2022-08-24T09:21:07.239Z,98376.72
2022-08-24T09:24:06.398Z,98368.16
2022-08-24T09:27:34.938Z,98364.88
2022-08-24T09:30:23.933Z,98366.75
2022-08-24T09:33:28.440Z,98366.97
2022-08-24T09:36:19.409Z,98367.97
2022-08-24T09:39:46.535Z,98361.97
2022-08-24T09:42:56.613Z,98362.38
2022-08-24T09:46:10.286Z,98368.88
2022-08-24T09:49:04.700Z,98356.84
2022-08-24T09:51:57.574Z,98359.50
2022-08-24T09:54:38.589Z,98350.19
2022-08-24T09:57:27.691Z,98356.78
2022-08-24T10:00:24.148Z,98360.16
2022-08-24T10:02:54.114Z,98359.59
2022-08-24T10:06:07.721Z,98358.56
2022-08-24T10:08:54.856Z,98358.06
2022-08-24T10:11:31.886Z,98358.81
2022-08-24T10:14:45.582Z,98349.72
2022-08-24T10:17:20.582Z,98355.66
2022-08-24T10:20:12.859Z,98355.44
2022-08-24T10:23:28.390Z,98351.84
2022-08-24T10:26:22.056Z,98351.03
2022-08-24T10:29:55.278Z,98352.75
2022-08-24T10:32:53.302Z,98359.25
2022-08-24T10:35:41.300Z,98357.38
2022-08-24T10:39:09.653Z,98360.00
2022-08-24T10:42:52.987Z,98351.38
2022-08-24T10:45:53.986Z,98350.94
2022-08-24T10:48:30.101Z,98362.22
2022-08-24T10:51:41.434Z,98356.00
2022-08-24T10:54:13.093Z,98356.41
2022-08-24T10:57:01.646Z,98363.25
2022-08-24T10:59:46.138Z,98358.06
2022-08-24T11:02:31.803Z,98360.41
2022-08-24T11:05:05.942Z,98360.81
2022-08-24T11:07:34.969Z,98362.19
2022-08-24T11:10:10.097Z,98370.47
2022-08-24T11:12:43.108Z,98362.09
2022-08-24T11:15:26.516Z,98365.00
2022-08-24T11:18:04.408Z,98361.13
2022-08-24T11:20:46.993Z,98357.94
2022-08-24T11:23:23.031Z,98348.84
2022-08-24T11:26:21.889Z,98355.94
2022-08-24T11:29:01.373Z,98363.56
2022-08-24T11:31:42.351Z,98362.41
2022-08-24T11:34:35.446Z,98367.75
2022-08-24T11:37:04.716Z,98369.81
2022-08-24T11:39:37.933Z,98367.81
2022-08-24T11:42:40.528Z,98375.56
2022-08-24T11:45:16.142Z,98368.38
2022-08-24T11:48:27.339Z,98367.16
2022-08-24T11:51:08.440Z,98371.13
2022-08-24T11:53:51.006Z,98372.47
2022-08-24T11:56:38.455Z,98362.84
2022-08-24T11:59:42.300Z,98366.03
2022-08-24T12:02:31.353Z,98369.25
2022-08-24T12:05:18.340Z,98367.59
2022-08-24T12:08:23.660Z,98365.69
2022-08-24T12:11:12.195Z,98351.59
2022-08-24T12:13:48.519Z,98338.69
2022-08-24T12:16:33.874Z,98340.84
2022-08-24T12:19:30.021Z,98323.69
2022-08-24T12:22:08.631Z,98328.78
2022-08-24T12:24:46.513Z,98317.91
2022-08-24T12:27:25.756Z,98310.59
2022-08-24T12:30:14.892Z,98305.22
2022-08-24T12:33:03.673Z,98312.78
2022-08-24T12:35:54.231Z,98314.03
2022-08-24T12:38:40.828Z,98312.25
2022-08-24T12:41:19.886Z,98302.53
2022-08-24T12:43:52.360Z,98298.78
2022-08-24T12:46:26.730Z,98296.78
2022-08-24T12:49:25.216Z,98295.16
2022-08-24T12:52:27.439Z,98292.34
2022-08-24T12:55:19.842Z,98291.25
2022-08-24T13:00:58.556Z,98285.53
2022-08-24T13:03:35.901Z,98272.50
2022-08-24T13:06:36.138Z,98269.84
2022-08-24T13:09:14.556Z,98277.22
2022-08-24T13:11:42.732Z,98272.44
2022-08-24T13:14:15.608Z,98280.81
2022-08-24T13:16:57.923Z,98275.56
2022-08-24T13:19:34.225Z,98273.16
2022-08-24T13:22:33.026Z,98282.91
2022-08-24T13:25:20.908Z,98274.59
2022-08-24T13:28:04.971Z,98282.81
2022-08-24T13:30:56.417Z,98283.28
2022-08-24T13:33:53.616Z,98280.66
2022-08-24T13:36:54.132Z,98273.00
2022-08-24T13:39:55.100Z,98269.44
2022-08-24T13:42:28.633Z,98269.13
2022-08-24T13:45:34.387Z,98266.50
2022-08-24T13:48:08.028Z,98257.25
2022-08-24T13:50:38.066Z,98254.63
2022-08-24T13:53:42.089Z,98250.59
2022-08-24T13:56:24.529Z,98244.13
2022-08-24T13:59:54.529Z,98232.31
2022-08-24T14:02:52.175Z,98225.47
2022-08-24T14:05:47.729Z,98225.69
2022-08-24T14:08:55.442Z,98222.75
2022-08-24T14:11:25.784Z,98227.84
2022-08-24T14:14:06.334Z,98228.34
2022-08-24T14:17:35.980Z,98221.94
2022-08-24T14:20:14.544Z,98225.06
2022-08-24T14:23:22.959Z,98222.91
2022-08-24T14:25:51.815Z,98210.19
2022-08-24T14:28:42.754Z,98206.28
2022-08-24T14:31:29.487Z,98203.50
2022-08-24T14:34:42.543Z,98212.75
2022-08-24T14:37:18.507Z,98212.66
2022-08-24T14:40:37.452Z,98203.41
2022-08-24T14:43:53.446Z,98203.44
2022-08-24T14:46:38.708Z,98195.50
2022-08-24T14:49:25.784Z,98198.22
2022-08-24T14:52:25.863Z,98199.84
2022-08-24T14:55:02.214Z,98201.16
2022-08-24T14:57:43.022Z,98195.63
2022-08-24T15:00:15.833Z,98184.19
2022-08-24T15:02:55.446Z,98191.75
2022-08-24T15:05:32.088Z,98201.34
2022-08-24T15:08:44.918Z,98215.00
2022-08-24T15:11:22.634Z,98211.91
2022-08-24T15:14:09.507Z,98221.53
2022-08-24T15:17:08.549Z,98217.13
2022-08-24T15:19:49.645Z,98220.78
2022-08-24T15:22:36.531Z,98225.97
2022-08-24T15:25:34.709Z,98227.81
2022-08-24T15:28:26.352Z,98225.31
2022-08-24T15:30:59.217Z,98213.13
2022-08-24T15:33:30.185Z,98220.03
2022-08-24T15:36:16.156Z,98218.78
2022-08-24T15:38:44.567Z,98220.63
2022-08-24T15:41:20.299Z,98205.53
2022-08-24T15:44:00.358Z,98196.63
2022-08-24T15:47:14.421Z,98198.25
2022-08-24T15:49:57.274Z,98201.78
2022-08-24T15:52:50.783Z,98210.88
2022-08-24T15:55:40.985Z,98208.13
2022-08-24T15:58:33.159Z,98220.69
2022-08-24T16:01:43.387Z,98210.84
2022-08-24T16:04:43.403Z,98213.63
2022-08-24T16:07:31.232Z,98213.63
2022-08-24T16:10:10.414Z,98217.38
2022-08-24T16:12:38.464Z,98209.88
2022-08-24T16:15:19.362Z,98203.06
2022-08-24T16:17:55.801Z,98214.44
2022-08-24T16:20:23.196Z,98218.56
2022-08-24T16:23:00.668Z,98217.13
2022-08-24T16:25:46.028Z,98210.47
2022-08-24T16:28:21.545Z,98208.72
2022-08-24T16:31:03.244Z,98214.50
2022-08-24T16:33:46.760Z,98207.41
2022-08-24T16:36:18.554Z,98212.50
2022-08-24T16:38:50.757Z,98212.19
2022-08-24T16:41:24.855Z,98219.88
2022-08-24T16:43:52.261Z,98218.44
2022-08-24T16:46:23.236Z,98219.56
2022-08-24T16:48:52.191Z,98229.72
2022-08-24T16:51:20.060Z,98217.25
2022-08-24T16:53:47.408Z,98222.47
2022-08-24T16:56:16.878Z,98221.00
2022-08-24T16:58:47.625Z,98219.59
2022-08-24T17:01:16.732Z,98224.44
2022-08-24T17:03:44.413Z,98230.09
2022-08-24T17:06:12.573Z,98229.19
2022-08-24T17:08:40.919Z,98230.50
2022-08-24T17:11:08.759Z,98234.44
2022-08-24T17:13:51.334Z,98227.88
2022-08-24T17:16:21.715Z,98226.91
2022-08-24T17:18:49.063Z,98230.22
2022-08-24T17:21:17.313Z,98227.44
2022-08-24T17:23:45.644Z,98230.59
2022-08-24T17:26:20.892Z,98235.81
2022-08-24T17:28:55.480Z,98230.09
2022-08-24T17:31:26.096Z,98227.44
2022-08-24T17:33:53.514Z,98228.69
2022-08-24T17:36:24.579Z,98226.44
2022-08-24T17:38:56.031Z,98223.84
2022-08-24T17:41:26.193Z,98226.75
2022-08-24T17:43:54.369Z,98229.06
2022-08-24T17:46:22.523Z,98229.28
2022-08-24T17:48:50.584Z,98235.69
2022-08-24T17:51:18.453Z,98230.75
2022-08-24T17:53:45.806Z,98243.13
2022-08-24T17:56:16.112Z,98243.56
2022-08-24T17:59:02.924Z,98240.69
2022-08-24T18:01:31.669Z,98241.94
2022-08-24T18:03:58.953Z,98232.44
2022-08-24T18:06:28.818Z,98252.63
2022-08-24T18:09:01.055Z,98254.91
2022-08-24T18:11:28.434Z,98268.25
2022-08-24T18:13:55.623Z,98276.88
2022-08-24T18:16:27.622Z,98282.13
2022-08-24T18:18:55.998Z,98270.91
2022-08-24T18:21:23.479Z,98281.56
2022-08-24T18:23:51.718Z,98274.06
2022-08-24T18:26:30.073Z,98275.06
2022-08-24T18:29:08.883Z,98273.41
2022-08-24T18:31:36.272Z,98269.50
2022-08-24T18:34:07.319Z,98267.97
2022-08-24T18:36:34.758Z,98276.97
2022-08-24T18:39:06.888Z,98283.34
2022-08-24T18:41:39.368Z,98284.53
2022-08-24T18:44:13.883Z,98285.31
2022-08-24T18:46:43.846Z,98282.81
2022-08-24T18:49:11.396Z,98279.09
2022-08-24T18:51:38.821Z,98280.47
2022-08-24T18:54:14.361Z,98276.75
2022-08-24T18:56:42.538Z,98284.72
2022-08-24T18:59:14.710Z,98283.63
2022-08-24T19:02:02.381Z,98289.78
2022-08-24T19:04:33.198Z,98297.19
2022-08-24T19:07:01.297Z,98287.28
2022-08-24T19:09:33.484Z,98274.28
2022-08-24T19:12:03.724Z,98282.88
2022-08-24T19:14:31.794Z,98288.13
2022-08-24T19:16:59.127Z,98296.53
2022-08-24T19:19:26.717Z,98281.91
2022-08-24T19:21:54.516Z,98283.13
2022-08-24T19:24:26.636Z,98291.69
2022-08-24T19:26:55.367Z,98285.09
2022-08-24T19:29:54.452Z,98286.22
2022-08-24T19:32:24.166Z,98289.41
2022-08-24T19:34:54.426Z,98285.22
2022-08-24T19:37:23.390Z,98281.50
2022-08-24T19:39:51.199Z,98279.56
2022-08-24T19:42:19.536Z,98285.94
2022-08-24T19:45:05.640Z,98283.06
2022-08-24T19:47:34.644Z,98294.66
2022-08-24T19:50:06.741Z,98295.03
2022-08-24T19:52:35.508Z,98297.88
2022-08-24T19:55:05.344Z,98310.03
2022-08-24T19:57:56.182Z,98297.66
2022-08-24T20:00:35.911Z,98310.69
2022-08-24T20:03:06.298Z,98292.22
2022-08-24T20:05:36.991Z,98305.06
2022-08-24T20:08:04.648Z,98311.41
2022-08-24T20:10:33.397Z,98315.00
2022-08-24T20:13:01.581Z,98317.94
2022-08-24T20:15:29.124Z,98316.47
2022-08-24T20:17:58.029Z,98322.44
2022-08-24T20:20:28.384Z,98322.44
2022-08-24T20:22:56.324Z,98325.19
2022-08-24T20:25:23.792Z,98316.75
2022-08-24T20:28:02.144Z,98326.81
2022-08-24T20:30:39.324Z,98321.88
2022-08-24T20:33:17.454Z,98321.56
2022-08-24T20:35:45.694Z,98322.09
2022-08-24T20:38:20.177Z,98334.25
2022-08-24T20:40:49.253Z,98327.91
2022-08-24T20:43:16.866Z,98325.63
2022-08-24T20:45:45.605Z,98328.44
2022-08-24T20:48:14.806Z,98331.66
2022-08-24T20:50:43.629Z,98340.47
2022-08-24T20:53:12.280Z,98338.63
2022-08-24T20:55:41.598Z,98343.31
2022-08-24T20:58:10.046Z,98344.16
2022-08-24T21:00:37.984Z,98346.00
2022-08-24T21:03:05.852Z,98351.03
2022-08-24T21:05:33.669Z,98343.81
2022-08-24T21:08:01.449Z,98342.31
2022-08-24T21:10:28.820Z,98348.72
2022-08-24T21:12:56.366Z,98347.63
2022-08-24T21:15:23.718Z,98348.25
2022-08-24T21:17:51.644Z,98339.31
2022-08-24T21:20:21.008Z,98339.38
2022-08-24T21:22:49.731Z,98340.97
2022-08-24T21:25:17.951Z,98339.97
2022-08-24T21:27:48.511Z,98332.81
2022-08-24T21:30:22.864Z,98331.03
2022-08-24T21:33:09.417Z,98330.38
2022-08-24T21:35:37.299Z,98335.56
2022-08-24T21:38:05.551Z,98341.06
2022-08-24T21:40:36.402Z,98340.25
2022-08-24T21:43:14.532Z,98339.94
2022-08-24T21:45:47.102Z,98333.97
2022-08-24T21:48:14.692Z,98332.34
2022-08-24T21:50:42.818Z,98324.22
2022-08-24T21:53:10.638Z,98328.22
2022-08-24T21:55:41.462Z,98318.41
2022-08-24T21:58:10.960Z,98312.25
2022-08-24T22:00:39.150Z,98311.09
2022-08-24T22:03:08.746Z,98312.13
2022-08-24T22:05:36.514Z,98309.78
2022-08-24T22:08:04.279Z,98312.47
2022-08-24T22:10:32.294Z,98317.16
2022-08-24T22:13:04.116Z,98325.16
2022-08-24T22:15:33.257Z,98326.63
2022-08-24T22:18:01.383Z,98322.50
2022-08-24T22:20:28.896Z,98323.50
2022-08-24T22:22:58.513Z,98327.47
2022-08-24T22:25:26.056Z,98318.38
2022-08-24T22:27:53.304Z,98325.66
2022-08-24T22:30:22.326Z,98329.66
2022-08-24T22:32:49.749Z,98325.63
2022-08-24T22:35:17.427Z,98320.31
2022-08-24T22:37:45.598Z,98325.63
2022-08-24T22:40:13.166Z,98333.13
2022-08-24T22:42:41.243Z,98323.97
2022-08-24T22:45:10.616Z,98320.47
2022-08-24T22:47:38.332Z,98320.13
2022-08-24T22:50:06.784Z,98315.00
2022-08-24T22:52:34.383Z,98305.34
2022-08-24T22:55:01.786Z,98310.81
2022-08-24T22:57:29.189Z,98310.47
2022-08-24T22:59:58.148Z,98307.16
2022-08-24T23:02:25.536Z,98313.84
2022-08-24T23:04:54.023Z,98317.81
2022-08-24T23:07:21.543Z,98312.50
2022-08-24T23:09:49.670Z,98308.75
2022-08-24T23:12:22.545Z,98314.22
2022-08-24T23:14:53.478Z,98317.88
2022-08-24T23:17:22.600Z,98310.72
2022-08-24T23:20:06.521Z,98313.56
2022-08-24T23:22:40.670Z,98305.28
2022-08-24T23:25:12.474Z,98302.75
2022-08-24T23:27:41.361Z,98306.59
2022-08-24T23:30:13.553Z,98309.25
2022-08-24T23:32:41.120Z,98308.59
2022-08-24T23:35:09.310Z,98308.94
2022-08-24T23:37:36.604Z,98300.81
2022-08-24T23:40:05.606Z,98298.44
2022-08-24T23:42:32.950Z,98308.25
2022-08-24T23:45:00.199Z,98304.09
2022-08-24T23:47:28.591Z,98308.06
2022-08-24T23:49:55.872Z,98307.56
2022-08-24T23:52:28.674Z,98308.41
2022-08-24T23:55:07.016Z,98311.41
2022-08-24T23:57:46.512Z,98302.28
